Time;durP1;ratioP1;P1;durP2;ratioP2;P2;SDS_P1;SDS_P2;PMS_P1;PMS_P2;Temp;Humidity;BMP_temperature;BMP_pressure;BME280_temperature;BME280_humidity;BME280_pressure;Samples;Min_cycle;Max_cycle;Signal;HPM_P1;HPM_P2
2021/06/29 00:00:30;;;;;;;4.93;2.80;;;14.60;82.20;;;;;;6093454;23;20031;-68
2021/06/29 00:03:06;;;;;;;4.20;2.95;;;14.60;82.30;;;;;;6091828;23;20395;-68
2021/06/29 00:05:35;;;;;;;3.72;2.83;;;14.60;82.30;;;;;;6093537;23;20002;-68
2021/06/29 00:08:02;;;;;;;4.10;3.45;;;14.60;82.30;;;;;;6093451;23;20009;-68
2021/06/29 00:10:30;;;;;;;5.20;3.08;;;14.60;82.40;;;;;;6093361;23;20022;-68
2021/06/29 00:12:57;;;;;;;3.40;2.88;;;14.60;82.50;;;;;;6093670;23;20050;-68
2021/06/29 00:15:26;;;;;;;6.00;3.53;;;14.60;82.60;;;;;;6092564;23;20030;-67
2021/06/29 00:17:53;;;;;;;3.83;2.33;;;14.60;82.60;;;;;;6093931;23;20331;-68
2021/06/29 00:20:19;;;;;;;4.28;2.80;;;14.60;82.60;;;;;;6092424;23;20100;-68
2021/06/29 00:22:46;;;;;;;3.92;2.95;;;14.60;82.70;;;;;;6093453;23;20894;-68
2021/06/29 00:25:13;;;;;;;6.60;2.85;;;14.60;82.70;;;;;;6087214;23;20072;-68
2021/06/29 00:28:16;;;;;;;5.13;2.67;;;14.60;82.80;;;;;;6092777;23;19999;-68
2021/06/29 00:30:43;;;;;;;5.57;2.45;;;14.50;82.80;;;;;;6091974;23;20028;-68
2021/06/29 00:33:10;;;;;;;4.50;3.40;;;14.60;82.90;;;;;;6091967;23;20002;-68
2021/06/29 00:35:37;;;;;;;8.18;4.10;;;14.50;82.90;;;;;;6093082;23;20003;-68
2021/06/29 00:38:03;;;;;;;6.63;3.10;;;14.50;82.90;;;;;;6092077;23;20006;-68
2021/06/29 00:40:31;;;;;;;5.30;2.38;;;14.50;83.00;;;;;;6092592;23;20492;-68
2021/06/29 00:42:58;;;;;;;6.45;2.95;;;14.50;83.00;;;;;;6091416;23;20029;-68
2021/06/29 00:45:24;;;;;;;4.47;2.40;;;14.50;83.10;;;;;;6092535;23;20003;-68
2021/06/29 00:47:51;;;;;;;6.40;3.45;;;14.50;83.10;;;;;;6093117;23;20024;-68
2021/06/29 00:50:17;;;;;;;3.80;2.33;;;14.60;83.20;;;;;;6091843;23;20316;-67
2021/06/29 00:52:44;;;;;;;4.80;3.53;;;14.50;83.10;;;;;;6093373;23;20014;-67
2021/06/29 00:55:14;;;;;;;3.50;2.58;;;14.50;83.20;;;;;;6091871;23;20006;-67
2021/06/29 00:57:41;;;;;;;4.10;3.22;;;14.50;83.20;;;;;;6093290;23;20089;-67
2021/06/29 01:00:10;;;;;;;4.38;3.08;;;14.50;83.20;;;;;;6092397;23;20003;-67
2021/06/29 01:02:38;;;;;;;5.53;3.40;;;14.50;83.20;;;;;;6092689;23;20002;-68
2021/06/29 01:05:06;;;;;;;4.68;3.35;;;14.50;83.20;;;;;;6093516;23;20006;-68
2021/06/29 01:07:32;;;;;;;6.90;4.05;;;14.50;83.20;;;;;;6092674;23;20013;-67
2021/06/29 01:09:59;;;;;;;8.15;5.03;;;14.50;83.30;;;;;;6093377;23;20025;-68
2021/06/29 01:12:26;;;;;;;10.30;4.95;;;14.50;83.30;;;;;;6091759;23;20030;-67
2021/06/29 01:14:52;;;;;;;6.93;4.88;;;14.50;83.30;;;;;;6093148;23;20013;-68
2021/06/29 01:17:19;;;;;;;10.98;6.13;;;14.50;83.30;;;;;;6091920;23;20002;-68
2021/06/29 01:19:47;;;;;;;10.35;6.55;;;14.50;83.90;;;;;;6092767;23;20057;-67
2021/06/29 01:22:14;;;;;;;13.98;7.85;;;14.50;83.30;;;;;;6093020;23;20009;-67
2021/06/29 01:24:43;;;;;;;11.35;8.60;;;14.50;83.30;;;;;;6092292;23;20006;-67
2021/06/29 01:27:24;;;;;;;12.48;8.00;;;14.50;83.30;;;;;;6093009;23;20013;-68
2021/06/29 01:32:24;;;;;;;14.18;9.15;;;14.50;83.30;;;;;;6093354;23;20022;-68
2021/06/29 01:34:50;;;;;;;12.77;10.32;;;14.50;83.40;;;;;;6092346;23;20003;-66
2021/06/29 01:37:18;;;;;;;15.65;10.27;;;14.50;83.40;;;;;;6092936;23;20118;-66
2021/06/29 01:40:10;;;;;;;16.15;10.25;;;14.50;83.40;;;;;;6092984;23;20012;-66
2021/06/29 01:42:37;;;;;;;18.70;10.43;;;14.50;84.10;;;;;;6092102;23;20030;-66
2021/06/29 01:45:05;;;;;;;16.95;11.30;;;14.50;83.40;;;;;;6093470;23;20012;-66
2021/06/29 01:47:41;;;;;;;21.23;11.07;;;14.50;83.40;;;;;;6092709;23;19999;-66
2021/06/29 01:50:16;;;;;;;18.23;11.18;;;14.50;83.40;;;;;;6093024;23;20013;-66
2021/06/29 01:52:44;;;;;;;16.10;10.38;;;14.50;83.50;;;;;;6092963;23;20015;-67
2021/06/29 01:55:12;;;;;;;12.15;8.68;;;14.50;83.50;;;;;;6092014;23;20010;-67
2021/06/29 01:57:42;;;;;;;18.75;9.23;;;14.40;83.40;;;;;;6093243;23;20370;-67
2021/06/29 02:00:11;;;;;;;16.30;9.15;;;14.40;83.40;;;;;;6091575;23;20006;-67
2021/06/29 02:02:37;;;;;;;12.93;7.70;;;14.40;83.40;;;;;;6093129;23;20010;-68
2021/06/29 02:05:04;;;;;;;12.52;6.95;;;14.40;83.30;;;;;;6092478;23;20316;-68
2021/06/29 02:07:31;;;;;;;11.23;7.00;;;14.50;83.30;;;;;;6092417;23;20006;-67
2021/06/29 02:09:57;;;;;;;12.57;5.60;;;14.40;83.20;;;;;;6092836;23;20042;-68
2021/06/29 02:12:24;;;;;;;9.15;4.93;;;14.40;83.10;;;;;;6091665;23;20014;-68
2021/06/29 02:14:50;;;;;;;11.93;4.45;;;14.40;82.90;;;;;;6092810;23;20002;-68
2021/06/29 02:17:17;;;;;;;9.02;4.20;;;14.40;82.80;;;;;;6091581;23;20007;-68
2021/06/29 02:19:43;;;;;;;6.15;2.78;;;14.40;82.50;;;;;;6092906;23;20007;-67
2021/06/29 02:22:10;;;;;;;5.57;2.50;;;14.40;82.40;;;;;;6091923;23;20104;-68
2021/06/29 02:24:36;;;;;;;6.35;2.05;;;14.40;82.20;;;;;;6092637;23;20077;-67
2021/06/29 02:27:03;;;;;;;4.75;1.75;;;14.40;82.00;;;;;;6094414;23;19998;-68
2021/06/29 02:29:29;;;;;;;4.43;1.38;;;14.40;81.80;;;;;;6093479;23;20002;-68
2021/06/29 02:31:56;;;;;;;7.45;1.23;;;14.40;81.70;;;;;;6094347;23;20010;-67
2021/06/29 02:34:22;;;;;;;7.18;1.55;;;14.40;81.40;;;;;;6093105;23;20077;-67
2021/06/29 02:36:49;;;;;;;3.22;1.40;;;14.40;81.90;;;;;;6094498;23;20002;-67
2021/06/29 02:39:15;;;;;;;5.45;1.40;;;14.30;81.10;;;;;;6091446;23;20386;-67
2021/06/29 02:41:42;;;;;;;4.60;1.30;;;14.30;81.00;;;;;;6094192;23;20450;-67
2021/06/29 02:44:09;;;;;;;1.80;0.95;;;14.30;80.90;;;;;;6092266;23;20430;-67
2021/06/29 02:46:36;;;;;;;3.30;1.05;;;14.30;80.80;;;;;;6093828;23;20082;-67
2021/06/29 02:49:02;;;;;;;3.30;1.20;;;14.30;80.60;;;;;;6095064;23;20458;-67
2021/06/29 02:51:29;;;;;;;5.10;1.95;;;14.30;80.30;;;;;;6092703;23;20094;-66
2021/06/29 02:53:55;;;;;;;5.25;1.75;;;14.30;80.10;;;;;;6094327;23;19998;-67
2021/06/29 02:56:37;;;;;;;3.70;1.92;;;14.30;80.00;;;;;;6092815;23;20026;-67
2021/06/29 02:59:05;;;;;;;2.55;1.08;;;14.30;80.00;;;;;;6094363;23;20003;-67
2021/06/29 03:01:32;;;;;;;3.67;1.02;;;14.30;79.70;;;;;;6093500;23;20007;-67
2021/06/29 03:03:58;;;;;;;6.35;1.10;;;14.30;79.70;;;;;;6093463;23;20009;-67
2021/06/29 03:06:25;;;;;;;2.95;0.93;;;14.30;79.70;;;;;;6094808;23;20002;-67
2021/06/29 03:08:51;;;;;;;2.60;1.02;;;14.30;79.70;;;;;;6092626;23;20350;-67
2021/06/29 03:11:18;;;;;;;4.38;1.50;;;14.20;79.50;;;;;;6094501;23;20014;-67
2021/06/29 03:13:44;;;;;;;4.50;1.48;;;14.20;79.50;;;;;;6093226;23;20010;-67
2021/06/29 03:16:11;;;;;;;5.10;1.05;;;14.30;79.50;;;;;;6094286;23;20033;-67
2021/06/29 03:18:38;;;;;;;2.78;1.60;;;14.20;79.30;;;;;;6093282;23;20312;-67
2021/06/29 03:21:08;;;;;;;5.22;1.08;;;14.20;79.20;;;;;;6093439;23;20431;-67
2021/06/29 03:23:38;;;;;;;2.72;1.33;;;14.20;79.00;;;;;;6093752;23;20026;-67
2021/06/29 03:26:05;;;;;;;1.98;0.60;;;14.20;78.90;;;;;;6092666;23;20007;-67
2021/06/29 03:28:32;;;;;;;6.00;1.23;;;14.20;78.90;;;;;;6094411;23;20050;-67
2021/06/29 03:30:59;;;;;;;2.08;0.95;;;14.20;78.90;;;;;;6092582;23;20010;-67
2021/06/29 03:33:25;;;;;;;4.32;1.00;;;14.20;78.80;;;;;;6093949;23;20078;-68
2021/06/29 03:35:52;;;;;;;3.40;1.77;;;14.20;78.90;;;;;;6092971;23;19999;-68
2021/06/29 03:38:19;;;;;;;2.95;0.63;;;14.20;78.90;;;;;;6093486;23;20010;-68
2021/06/29 03:41:25;;;;;;;6.35;2.50;;;14.20;78.90;;;;;;6093273;23;20005;-68
2021/06/29 03:44:31;;;;;;;6.38;1.02;;;14.20;79.00;;;;;;6089365;23;20030;-68
2021/06/29 03:47:37;;;;;;;2.50;0.95;;;14.20;79.00;;;;;;6093572;23;20028;-67
2021/06/29 03:50:04;;;;;;;3.72;0.98;;;14.20;79.00;;;;;;6093899;23;20009;-66
2021/06/29 03:52:31;;;;;;;3.38;0.90;;;14.20;79.50;;;;;;6089312;23;20015;-67
2021/06/29 03:54:57;;;;;;;4.53;0.68;;;14.20;78.90;;;;;;6093752;23;20006;-67
2021/06/29 03:57:24;;;;;;;2.40;1.38;;;14.10;78.90;;;;;;6092141;23;20070;-67
2021/06/29 03:59:51;;;;;;;3.08;0.60;;;14.20;79.00;;;;;;6093598;23;20006;-68
2021/06/29 04:02:17;;;;;;;4.35;1.02;;;14.20;79.00;;;;;;6093660;23;19998;-68
2021/06/29 04:04:44;;;;;;;3.20;1.13;;;14.10;79.00;;;;;;6092871;23;20003;-68
2021/06/29 04:07:10;;;;;;;1.63;0.82;;;14.20;79.20;;;;;;6094028;23;19998;-68
2021/06/29 04:09:39;;;;;;;4.07;0.98;;;14.10;79.20;;;;;;6092571;23;20439;-67
2021/06/29 04:12:09;;;;;;;4.47;1.20;;;14.10;79.20;;;;;;6093878;23;20329;-67
2021/06/29 04:14:36;;;;;;;3.45;0.93;;;14.10;79.20;;;;;;6092644;23;20081;-68
2021/06/29 04:17:03;;;;;;;8.68;2.17;;;14.10;79.20;;;;;;6093713;23;20073;-68
2021/06/29 04:19:29;;;;;;;6.95;1.77;;;14.10;79.20;;;;;;6092864;23;20002;-68
2021/06/29 04:21:56;;;;;;;3.42;1.55;;;14.10;79.20;;;;;;6093111;23;20419;-68
2021/06/29 04:24:22;;;;;;;6.15;1.95;;;14.10;79.30;;;;;;6093792;23;20483;-68
2021/06/29 04:26:49;;;;;;;3.90;1.50;;;14.10;79.30;;;;;;6092053;23;20408;-68
2021/06/29 04:29:15;;;;;;;5.57;2.10;;;14.10;79.30;;;;;;6094177;23;20076;-68
2021/06/29 04:31:42;;;;;;;9.43;6.28;;;14.10;79.40;;;;;;6092507;23;20065;-68
2021/06/29 04:34:09;;;;;;;17.35;11.73;;;14.10;79.50;;;;;;6093811;23;20010;-68
2021/06/29 04:36:35;;;;;;;12.27;9.00;;;14.10;79.50;;;;;;6092902;23;20013;-68
2021/06/29 04:39:02;;;;;;;13.48;7.03;;;14.10;79.60;;;;;;6092677;23;20002;-68
2021/06/29 04:41:29;;;;;;;9.07;6.28;;;14.10;79.60;;;;;;6093116;23;20327;-69
2021/06/29 04:43:56;;;;;;;10.27;5.10;;;14.10;79.70;;;;;;6092118;23;20021;-68
2021/06/29 04:46:22;;;;;;;4.78;3.45;;;14.10;79.80;;;;;;6093047;23;20007;-68
2021/06/29 04:48:49;;;;;;;8.93;3.72;;;14.10;79.90;;;;;;6092206;23;20002;-68
2021/06/29 04:51:15;;;;;;;9.77;3.55;;;14.10;80.00;;;;;;6093388;23;20014;-67
2021/06/29 04:54:21;;;;;;;6.40;3.28;;;14.10;80.00;;;;;;6086267;23;20009;-72
2021/06/29 04:56:55;;;;;;;4.07;3.05;;;14.10;80.20;;;;;;6089318;23;20002;-68
2021/06/29 04:59:21;;;;;;;5.32;3.92;;;14.10;80.30;;;;;;6088655;23;20006;-69
2021/06/29 05:01:47;;;;;;;11.27;8.85;;;14.10;80.40;;;;;;6090743;23;20013;-69
2021/06/29 05:04:14;;;;;;;19.48;12.00;;;14.10;80.50;;;;;;6091501;23;20030;-68
2021/06/29 05:06:41;;;;;;;17.05;9.75;;;14.10;80.50;;;;;;6090476;23;20010;-68
2021/06/29 05:09:07;;;;;;;12.18;8.15;;;14.10;80.60;;;;;;6088382;23;20088;-68
2021/06/29 05:11:36;;;;;;;10.27;5.97;;;14.10;80.60;;;;;;6091204;23;20612;-68
2021/06/29 05:14:03;;;;;;;10.00;5.20;;;14.10;80.60;;;;;;6090175;23;20002;-69
2021/06/29 05:16:30;;;;;;;10.00;3.97;;;14.10;80.60;;;;;;6092074;23;20426;-68
2021/06/29 05:18:57;;;;;;;8.57;3.03;;;14.00;80.50;;;;;;6090352;23;20400;-70
2021/06/29 05:21:24;;;;;;;5.88;2.80;;;14.10;80.50;;;;;;6091601;23;20427;-72
2021/06/29 05:23:50;;;;;;;4.80;2.90;;;14.10;80.50;;;;;;6090604;23;20086;-69
2021/06/29 05:26:17;;;;;;;5.60;3.92;;;14.00;80.30;;;;;;6092005;23;20002;-69
2021/06/29 05:28:44;;;;;;;7.82;2.50;;;14.10;80.30;;;;;;6091739;23;20062;-69
2021/06/29 05:31:10;;;;;;;7.93;3.30;;;14.10;80.30;;;;;;6091336;23;20069;-70
2021/06/29 05:33:37;;;;;;;8.13;3.28;;;14.10;80.30;;;;;;6091765;23;19998;-70
2021/06/29 05:36:04;;;;;;;6.43;2.50;;;14.10;80.20;;;;;;6091637;23;20037;-68
2021/06/29 05:38:30;;;;;;;3.20;2.47;;;14.10;80.30;;;;;;6093106;23;19999;-67
2021/06/29 05:40:57;;;;;;;12.00;4.85;;;14.00;80.30;;;;;;6089033;23;20011;-66
2021/06/29 05:43:23;;;;;;;14.93;11.27;;;14.00;80.30;;;;;;6092912;23;20430;-67
2021/06/29 05:45:50;;;;;;;16.52;11.65;;;14.00;80.40;;;;;;6092482;23;20007;-70
2021/06/29 05:48:18;;;;;;;15.32;10.48;;;14.00;80.50;;;;;;6092641;23;19995;-67
2021/06/29 05:50:45;;;;;;;14.60;8.43;;;14.00;80.60;;;;;;6092787;23;20006;-67
2021/06/29 05:53:13;;;;;;;11.77;6.53;;;14.00;80.70;;;;;;6092010;23;20375;-67
2021/06/29 05:55:39;;;;;;;12.15;6.32;;;14.00;80.80;;;;;;6093254;23;20010;-68
2021/06/29 05:58:06;;;;;;;9.93;5.30;;;14.00;80.90;;;;;;6091761;23;20009;-68
2021/06/29 06:00:32;;;;;;;10.82;5.47;;;14.00;81.10;;;;;;6094683;23;20701;-68
2021/06/29 06:02:59;;;;;;;9.25;5.57;;;14.00;81.10;;;;;;6093728;23;20003;-67
2021/06/29 06:05:25;;;;;;;12.23;7.15;;;14.00;81.10;;;;;;6094350;23;20003;-68
2021/06/29 06:07:54;;;;;;;8.55;6.32;;;14.00;81.20;;;;;;6094504;23;20082;-68
2021/06/29 06:10:21;;;;;;;9.93;5.65;;;14.00;81.20;;;;;;6093871;23;20018;-68
2021/06/29 06:12:47;;;;;;;11.75;6.93;;;14.00;81.20;;;;;;6095540;23;20057;-68
2021/06/29 06:15:14;;;;;;;7.13;5.43;;;14.00;81.30;;;;;;6093953;23;20081;-68
2021/06/29 06:17:41;;;;;;;9.30;5.50;;;14.00;81.30;;;;;;6095030;23;20010;-70
2021/06/29 06:20:27;;;;;;;9.65;5.10;;;14.00;81.30;;;;;;6103605;23;20065;-69
2021/06/29 06:22:54;;;;;;;12.05;5.22;;;13.90;81.20;;;;;;6094451;23;20502;-68
2021/06/29 06:25:20;;;;;;;8.68;4.72;;;14.00;81.30;;;;;;6094813;23;20367;-68
2021/06/29 06:27:48;;;;;;;7.40;4.53;;;14.00;81.30;;;;;;6094040;23;20003;-68
2021/06/29 06:30:54;;;;;;;11.80;5.55;;;14.00;81.40;;;;;;6095008;23;20009;-67
2021/06/29 06:34:00;;;;;;;8.13;4.82;;;13.90;81.30;;;;;;6093508;23;20017;-74
2021/06/29 06:37:06;;;;;;;11.02;5.20;;;14.00;81.40;;;;;;6093209;23;20002;-69
2021/06/29 06:40:12;;;;;;;13.13;5.50;;;14.00;81.40;;;;;;6094506;23;19999;-68
2021/06/29 06:43:18;;;;;;;12.82;7.47;;;13.90;81.50;;;;;;6092802;23;20006;-64
2021/06/29 06:45:45;;;;;;;13.27;7.25;;;13.90;81.80;;;;;;6092775;23;20003;-67
2021/06/29 06:48:11;;;;;;;12.32;5.97;;;13.90;81.80;;;;;;6094403;23;19999;-65
2021/06/29 06:50:38;;;;;;;20.60;12.43;;;13.90;81.80;;;;;;6093596;23;20006;-72
2021/06/29 06:53:05;;;;;;;17.02;12.77;;;13.90;81.80;;;;;;6094246;23;20010;-65
2021/06/29 06:55:32;;;;;;;16.63;10.40;;;13.90;81.70;;;;;;6094014;23;20010;-65
2021/06/29 06:57:58;;;;;;;16.23;8.25;;;13.90;81.60;;;;;;6093227;23;20002;-65
2021/06/29 07:00:26;;;;;;;14.48;7.53;;;14.00;81.60;;;;;;6094302;23;19999;-64
2021/06/29 07:02:54;;;;;;;14.85;6.93;;;13.90;81.40;;;;;;6092829;23;20006;-66
2021/06/29 07:05:21;;;;;;;9.52;5.40;;;13.90;81.40;;;;;;6094385;23;20427;-66
2021/06/29 07:07:48;;;;;;;11.35;4.55;;;13.90;81.30;;;;;;6093924;23;20030;-71
2021/06/29 07:10:56;;;;;;;12.50;5.03;;;14.00;81.30;;;;;;6088819;23;20032;-67
2021/06/29 07:14:02;;;;;;;10.63;4.65;;;13.90;81.20;;;;;;6093413;23;20050;-66
2021/06/29 07:16:28;;;;;;;10.80;4.50;;;13.90;81.20;;;;;;6114994;23;20508;-64
2021/06/29 07:18:55;;;;;;;11.10;4.30;;;13.90;81.20;;;;;;6093632;23;20438;-63
2021/06/29 07:21:26;;;;;;;10.05;4.30;;;13.90;81.20;;;;;;6093322;23;20003;-62
2021/06/29 07:23:56;;;;;;;9.27;4.20;;;13.90;81.30;;;;;;6093113;23;20073;-65
2021/06/29 07:26:23;;;;;;;9.57;4.03;;;13.90;81.30;;;;;;6093279;23;20002;-69
2021/06/29 07:28:50;;;;;;;9.57;4.15;;;13.90;81.40;;;;;;6091957;23;20288;-61
2021/06/29 07:31:17;;;;;;;12.68;4.30;;;13.90;81.40;;;;;;6092999;23;20014;-67
2021/06/29 07:33:46;;;;;;;12.55;4.38;;;13.90;81.40;;;;;;6093332;23;20007;-61
2021/06/29 07:36:14;;;;;;;8.32;4.25;;;13.90;81.50;;;;;;6094296;23;20010;-63
2021/06/29 07:38:41;;;;;;;16.25;7.22;;;13.90;81.60;;;;;;6094081;23;20010;-73
2021/06/29 07:41:07;;;;;;;16.20;8.20;;;13.90;81.60;;;;;;6093591;23;19994;-62
2021/06/29 07:43:34;;;;;;;8.55;5.88;;;13.90;81.70;;;;;;6094335;23;20026;-69
2021/06/29 07:46:01;;;;;;;14.05;6.80;;;13.90;81.80;;;;;;6093702;23;20003;-64
2021/06/29 07:48:27;;;;;;;9.98;5.20;;;13.90;81.90;;;;;;6094231;23;20077;-64
2021/06/29 07:50:54;;;;;;;13.80;5.32;;;13.90;82.00;;;;;;6092911;23;20013;-62
2021/06/29 07:53:21;;;;;;;16.73;7.85;;;13.90;82.00;;;;;;6094795;23;20011;-65
2021/06/29 07:55:51;;;;;;;16.85;11.50;;;13.90;82.10;;;;;;6093995;23;20003;-64
2021/06/29 07:58:18;;;;;;;18.45;10.18;;;13.90;82.10;;;;;;6093459;23;20002;-63
2021/06/29 08:00:47;;;;;;;18.17;8.27;;;13.90;82.10;;;;;;6094312;23;20064;-63
2021/06/29 08:03:13;;;;;;;12.07;7.35;;;13.90;82.10;;;;;;6093623;23;20010;-63
2021/06/29 08:05:40;;;;;;;12.02;4.63;;;13.90;82.10;;;;;;6093980;23;20006;-63
2021/06/29 08:08:08;;;;;;;8.73;4.65;;;13.90;82.20;;;;;;6092901;23;20067;-62
2021/06/29 08:10:36;;;;;;;7.05;3.95;;;13.90;82.10;;;;;;6093623;23;20547;-62
2021/06/29 08:13:07;;;;;;;6.40;3.78;;;13.90;82.10;;;;;;6093675;23;20025;-63
2021/06/29 08:15:34;;;;;;;7.30;3.55;;;13.90;82.10;;;;;;6093352;23;20003;-62
2021/06/29 08:18:01;;;;;;;11.35;4.95;;;13.90;82.10;;;;;;6094584;23;20006;-63
2021/06/29 08:20:28;;;;;;;10.02;3.08;;;13.90;82.20;;;;;;6092988;23;20007;-63
2021/06/29 08:22:55;;;;;;;7.97;3.60;;;13.90;82.20;;;;;;6093712;23;20002;-63
2021/06/29 08:25:23;;;;;;;8.60;3.63;;;13.90;82.30;;;;;;6092705;23;20009;-63
2021/06/29 08:27:50;;;;;;;9.20;3.70;;;14.00;82.40;;;;;;6094257;23;20009;-63
2021/06/29 08:30:18;;;;;;;12.73;4.10;;;14.00;82.40;;;;;;6093219;23;19998;-63
2021/06/29 08:32:44;;;;;;;10.00;3.42;;;14.00;82.50;;;;;;6093362;23;20025;-63
2021/06/29 08:35:12;;;;;;;10.85;4.38;;;14.00;82.50;;;;;;6093883;23;20125;-63
2021/06/29 08:37:40;;;;;;;7.95;3.58;;;14.00;82.60;;;;;;6092829;23;20101;-63
2021/06/29 08:40:09;;;;;;;7.78;4.35;;;14.10;82.70;;;;;;6093977;23;20005;-63
2021/06/29 08:42:37;;;;;;;9.45;3.63;;;14.00;82.80;;;;;;6092768;23;20009;-63
2021/06/29 08:45:06;;;;;;;11.50;4.38;;;14.10;82.80;;;;;;6093836;23;20077;-63
2021/06/29 08:47:34;;;;;;;8.90;4.50;;;14.10;82.80;;;;;;6092963;23;20003;-63
2021/06/29 08:50:01;;;;;;;6.22;3.65;;;14.10;82.80;;;;;;6093548;23;20010;-63
2021/06/29 08:52:29;;;;;;;11.23;4.50;;;14.10;82.80;;;;;;6093900;23;20006;-63
2021/06/29 08:54:57;;;;;;;11.43;3.85;;;14.10;82.90;;;;;;6092698;23;20030;-63
2021/06/29 08:57:23;;;;;;;8.05;4.00;;;14.20;83.00;;;;;;6093742;23;20002;-63
2021/06/29 08:59:50;;;;;;;11.98;4.03;;;14.20;83.00;;;;;;6092519;23;20002;-63
2021/06/29 09:02:17;;;;;;;5.93;3.28;;;14.20;83.10;;;;;;6093683;23;20006;-63
2021/06/29 09:04:50;;;;;;;9.65;3.05;;;14.20;83.10;;;;;;6093013;23;20279;-63
2021/06/29 09:07:24;;;;;;;9.25;3.10;;;14.20;83.00;;;;;;6093405;23;20064;-63
2021/06/29 09:09:54;;;;;;;8.68;4.10;;;14.10;82.90;;;;;;6093869;23;20062;-63
2021/06/29 09:12:42;;;;;;;7.13;3.60;;;14.20;83.00;;;;;;6092226;23;20015;-63
2021/06/29 09:15:27;;;;;;;6.97;2.95;;;14.20;83.00;;;;;;6093940;23;20006;-63
2021/06/29 09:17:56;;;;;;;6.28;3.30;;;14.20;83.00;;;;;;6092899;23;20013;-63
2021/06/29 09:20:29;;;;;;;9.18;3.60;;;14.20;83.00;;;;;;6093176;23;20010;-63
2021/06/29 09:23:12;;;;;;;10.30;2.65;;;14.20;83.00;;;;;;6093961;23;20379;-63
2021/06/29 09:25:47;;;;;;;7.60;3.47;;;14.20;83.00;;;;;;6092834;23;20002;-63
2021/06/29 09:28:19;;;;;;;12.00;3.53;;;14.20;83.10;;;;;;6093647;23;20005;-63
2021/06/29 09:30:56;;;;;;;8.57;3.00;;;14.20;83.10;;;;;;6092688;23;20056;-63
2021/06/29 09:33:26;;;;;;;4.63;3.53;;;14.20;83.20;;;;;;6093070;23;20029;-63
2021/06/29 09:35:56;;;;;;;10.02;2.72;;;14.20;83.20;;;;;;6095834;23;20503;-63
2021/06/29 09:38:34;;;;;;;6.22;2.60;;;14.20;83.20;;;;;;6094580;23;20531;-63
2021/06/29 09:41:10;;;;;;;8.13;2.95;;;14.20;83.20;;;;;;6095788;23;20010;-64
2021/06/29 09:43:39;;;;;;;8.20;3.08;;;14.20;83.30;;;;;;6094592;23;20005;-63
2021/06/29 09:46:11;;;;;;;12.45;4.10;;;14.20;83.20;;;;;;6095411;23;20022;-63
2021/06/29 09:48:50;;;;;;;5.80;3.65;;;14.20;83.20;;;;;;6095262;23;20113;-63
2021/06/29 09:51:22;;;;;;;8.20;3.58;;;14.20;83.20;;;;;;6094123;23;20046;-63
2021/06/29 09:53:52;;;;;;;10.38;4.22;;;14.20;83.30;;;;;;6095587;23;20082;-63
2021/06/29 09:56:23;;;;;;;8.80;3.35;;;14.20;83.30;;;;;;6094397;23;20108;-63
2021/06/29 09:58:53;;;;;;;9.65;3.63;;;14.20;83.30;;;;;;6095428;23;20006;-63
2021/06/29 10:01:22;;;;;;;5.97;3.47;;;14.20;83.40;;;;;;6094869;23;20470;-63
2021/06/29 10:03:53;;;;;;;9.90;4.40;;;14.20;83.40;;;;;;6094690;23;19999;-63
2021/06/29 10:06:30;;;;;;;6.45;3.47;;;14.20;83.50;;;;;;6095495;23;19998;-64
2021/06/29 10:09:10;;;;;;;6.68;3.28;;;14.10;83.40;;;;;;6094129;23;20048;-63
2021/06/29 10:11:54;;;;;;;8.10;3.85;;;14.10;83.40;;;;;;6095359;23;20497;-63
2021/06/29 10:14:22;;;;;;;7.85;3.78;;;14.10;83.50;;;;;;6094886;23;20006;-63
2021/06/29 10:16:51;;;;;;;6.63;3.13;;;14.10;83.50;;;;;;6094601;23;20450;-63
2021/06/29 10:19:33;;;;;;;16.58;3.97;;;14.10;83.60;;;;;;6095238;23;20430;-63
2021/06/29 10:22:04;;;;;;;9.45;3.97;;;14.10;83.60;;;;;;6094134;23;20043;-63
2021/06/29 10:24:38;;;;;;;4.93;3.83;;;14.10;83.60;;;;;;6095120;23;20003;-63
2021/06/29 10:27:08;;;;;;;5.47;3.65;;;14.10;83.70;;;;;;6094611;23;20490;-64
2021/06/29 10:29:35;;;;;;;7.60;3.88;;;14.10;83.70;;;;;;6094761;23;20003;-65
2021/06/29 10:32:09;;;;;;;5.07;3.70;;;14.10;83.70;;;;;;6094861;23;20021;-63
2021/06/29 10:34:37;;;;;;;5.72;4.13;;;14.10;83.80;;;;;;6093713;23;20399;-63
2021/06/29 10:37:05;;;;;;;8.63;5.22;;;14.10;83.80;;;;;;6095196;23;20002;-63
2021/06/29 10:39:33;;;;;;;6.72;3.90;;;14.00;83.80;;;;;;6093842;23;20004;-63
2021/06/29 10:42:03;;;;;;;6.78;3.83;;;14.10;83.80;;;;;;6095750;23;20006;-63
2021/06/29 10:44:39;;;;;;;7.85;5.15;;;14.10;83.90;;;;;;6094090;23;20006;-63
2021/06/29 10:47:21;;;;;;;10.05;3.88;;;14.10;83.90;;;;;;6094025;23;20010;-63
2021/06/29 10:49:49;;;;;;;5.22;2.55;;;14.10;83.90;;;;;;6094959;23;20002;-63
2021/06/29 10:52:30;;;;;;;5.75;2.60;;;14.10;83.90;;;;;;6094001;23;20010;-63
2021/06/29 10:55:03;;;;;;;2.45;1.75;;;14.10;83.90;;;;;;6094851;23;20082;-63
2021/06/29 10:57:50;;;;;;;2.78;1.98;;;14.10;83.90;;;;;;6094144;23;20058;-64
2021/06/29 11:00:16;;;;;;;2.88;1.90;;;14.10;83.80;;;;;;6093862;23;20367;-63
2021/06/29 11:03:04;;;;;;;3.20;1.65;;;14.10;83.90;;;;;;6094805;23;20014;-63
2021/06/29 11:05:40;;;;;;;3.75;2.22;;;14.10;83.90;;;;;;6092884;23;20010;-63
2021/06/29 11:08:27;;;;;;;;;;;14.10;83.90;;;;;;6095425;23;20003;-63
2021/06/29 11:11:07;;;;;;;4.30;2.25;;;14.10;83.90;;;;;;6094432;23;19917;-64
2021/06/29 11:13:41;;;;;;;3.72;2.22;;;14.10;83.80;;;;;;6093468;23;20451;-64
2021/06/29 11:16:07;;;;;;;3.83;3.10;;;14.10;83.80;;;;;;6094583;23;20002;-63
2021/06/29 11:18:34;;;;;;;4.30;3.00;;;14.10;83.90;;;;;;6093724;23;20003;-64
2021/06/29 11:21:04;;;;;;;6.85;3.63;;;14.10;83.90;;;;;;6094720;23;20009;-63
2021/06/29 11:23:33;;;;;;;4.63;3.33;;;14.10;84.00;;;;;;6094034;23;20029;-64
2021/06/29 11:26:19;;;;;;;5.53;4.30;;;14.10;84.10;;;;;;6093894;23;20422;-64
2021/06/29 11:29:04;;;;;;;5.00;4.28;;;14.10;84.20;;;;;;6094596;23;20064;-64
2021/06/29 11:31:31;;;;;;;6.10;5.50;;;14.20;84.40;;;;;;6093116;23;20387;-64
2021/06/29 11:34:04;;;;;;;6.05;4.72;;;14.20;84.40;;;;;;6095053;23;20121;-64
2021/06/29 11:36:31;;;;;;;5.35;4.70;;;14.20;84.40;;;;;;6092950;23;20037;-64
2021/06/29 11:39:02;;;;;;;7.22;6.15;;;14.20;84.40;;;;;;6091966;23;20066;-65
2021/06/29 11:41:31;;;;;;;7.88;4.25;;;14.30;84.40;;;;;;6094323;23;20017;-64
2021/06/29 11:44:19;;;;;;;5.15;3.63;;;14.30;84.40;;;;;;6093240;23;20006;-64
2021/06/29 11:46:51;;;;;;;8.45;3.55;;;14.30;84.30;;;;;;6094223;23;20002;-64
2021/06/29 11:50:00;;;;;;;6.15;3.90;;;14.30;84.20;;;;;;6093432;23;20730;-64
2021/06/29 11:52:29;;;;;;;7.05;4.45;;;14.30;84.20;;;;;;5976622;24;20022;-64
2021/06/29 11:55:18;;;;;;;8.50;3.92;;;14.30;84.10;;;;;;5977618;24;20025;-64
2021/06/29 11:57:56;;;;;;;6.32;3.90;;;14.30;84.10;;;;;;6053842;23;20010;-65
2021/06/29 12:00:31;;;;;;;8.88;4.82;;;14.40;84.10;;;;;;6094007;23;20427;-64
2021/06/29 12:03:19;;;;;;;6.25;4.50;;;14.40;84.20;;;;;;6094365;23;20050;-64
2021/06/29 12:05:46;;;;;;;5.63;3.85;;;14.40;84.10;;;;;;6092937;23;20061;-64
2021/06/29 12:08:14;;;;;;;7.43;4.80;;;14.40;84.10;;;;;;6094052;23;19998;-65
2021/06/29 12:10:43;;;;;;;4.70;3.95;;;14.40;84.10;;;;;;6092870;23;20005;-64
2021/06/29 12:13:14;;;;;;;6.53;3.50;;;14.50;84.00;;;;;;6094104;23;20010;-64
2021/06/29 12:15:52;;;;;;;9.40;4.10;;;14.50;83.90;;;;;;6093888;23;20454;-64
2021/06/29 12:18:21;;;;;;;6.90;4.22;;;14.50;83.90;;;;;;6093069;23;20343;-64
2021/06/29 12:20:56;;;;;;;6.82;4.05;;;14.50;83.90;;;;;;6094014;23;20006;-65
2021/06/29 12:23:28;;;;;;;5.85;3.75;;;14.50;83.80;;;;;;6093454;23;20300;-65
2021/06/29 12:25:59;;;;;;;5.97;4.18;;;14.50;83.80;;;;;;6094260;23;20053;-64
2021/06/29 12:28:28;;;;;;;6.43;4.72;;;14.50;83.80;;;;;;6093569;23;19999;-65
2021/06/29 12:31:08;;;;;;;6.97;4.97;;;14.50;83.80;;;;;;6093388;23;20073;-65
2021/06/29 12:33:34;;;;;;;4.28;3.83;;;14.50;83.70;;;;;;6094016;23;20543;-64
2021/06/29 12:36:12;;;;;;;5.30;4.45;;;14.50;83.60;;;;;;6092625;23;20026;-64
2021/06/29 12:38:43;;;;;;;14.80;4.93;;;14.60;83.60;;;;;;6093875;23;20003;-64
2021/06/29 12:41:28;;;;;;;7.90;3.90;;;14.60;83.60;;;;;;6093047;23;20319;-64
2021/06/29 12:44:06;;;;;;;5.65;4.10;;;14.60;83.60;;;;;;6093707;23;20422;-64
2021/06/29 12:46:41;;;;;;;6.72;4.00;;;14.60;83.60;;;;;;6092364;23;20006;-64
2021/06/29 12:49:08;;;;;;;8.68;4.70;;;14.60;83.50;;;;;;6092819;23;20003;-64
2021/06/29 12:51:41;;;;;;;6.18;4.22;;;14.60;83.50;;;;;;6093618;23;20421;-64
2021/06/29 12:54:11;;;;;;;8.52;5.28;;;14.60;83.50;;;;;;6092827;23;20002;-64
2021/06/29 12:56:46;;;;;;;7.20;3.95;;;14.60;83.40;;;;;;6093543;23;20006;-64
2021/06/29 12:59:14;;;;;;;6.18;3.90;;;14.60;83.30;;;;;;6093985;23;20498;-64
2021/06/29 13:01:44;;;;;;;4.40;3.97;;;14.60;83.30;;;;;;6092717;23;20053;-64
2021/06/29 13:04:13;;;;;;;7.05;3.95;;;14.50;83.20;;;;;;6093783;23;19999;-64